Startpagina
METAR-TAF:

METAR-TAF

Vliegvelden :

Schaffen

Diest, België

breedte: 51-00N, lengte: 005-04E, hoogte: 30 m

Actueel weer

Dit bericht is 24 minuten geleden gemaakt, om 11:55 UTC
Wind 10 kt uit het oosten
Temperatuur 22°C
Vochtigheid 27%
Druk 1022 hPa
Zicht 10 km of meer

METAR: EBDT 301155Z AUTO 08010KT 9999 FEW090/// BKN110/// BKN220/// 22/02 Q1022 BLU

Tijdstip: 14:19 (12:19 UTC)

Verwachting

Dit bericht is 24 uur en het 38 minuten geleden gemaakt, om 11:41 UTC
Verwachting geldig van 29 om 13 UTC tot 29 om 22 UTC
Wind 8 kt uit het oostnoordoosten
Zicht 10 km of meer
Weinig wolken op 5000 ft
Verspreide wolken op 33000 ft

TAF: EBDT 291141Z 2913/2922 07008KT 9999 FEW050 SCT330

Waarnemingen en weersverwachtingen van meer dan 4000 vliegvelden (METAR en TAF).

De beschikbare stations zijn de gele en rode punten op de kaart.

Ga met uw muis naar het station om de naam te zien.

Klik dan om waarnemingen en weersverwachtingen te zien.

kaart wijzigen: klik op de groene knoppen met een zwart kruis om in te zoomen, op de groene knop met een streepje om uit te zoomen of op de groene pijlen voor aangrenzende kaarten.


METAR-TAF: